createdAt,value
2022-07-29T00:00:27.942Z,3.83
2022-07-29T00:02:54.849Z,3.72
2022-07-29T00:05:21.779Z,4.10
2022-07-29T00:07:48.671Z,4.05
2022-07-29T00:10:15.538Z,3.90
2022-07-29T00:12:42.432Z,3.90
2022-07-29T00:15:09.931Z,4.35
2022-07-29T00:17:36.841Z,3.88
2022-07-29T00:20:05.031Z,3.95
2022-07-29T00:22:32.956Z,3.78
2022-07-29T00:24:59.915Z,3.90
2022-07-29T00:27:26.799Z,3.90
2022-07-29T00:29:53.720Z,4.00
2022-07-29T00:32:20.556Z,3.95
2022-07-29T00:35:05.940Z,4.00
2022-07-29T00:37:32.839Z,4.30
2022-07-29T00:39:59.693Z,3.88
2022-07-29T00:42:26.617Z,3.90
2022-07-29T00:44:53.441Z,3.90
2022-07-29T00:47:20.386Z,4.28
2022-07-29T00:49:47.815Z,4.00
2022-07-29T00:52:17.015Z,4.00
2022-07-29T00:54:45.037Z,4.07
2022-07-29T00:57:13.010Z,3.90
2022-07-29T00:59:40.481Z,4.05
2022-07-29T01:02:07.471Z,3.83
2022-07-29T01:04:34.721Z,3.90
2022-07-29T01:07:03.123Z,3.60
2022-07-29T01:09:43.106Z,3.63
2022-07-29T01:12:18.960Z,3.97
2022-07-29T01:14:48.391Z,3.92
2022-07-29T01:17:34.980Z,3.95
2022-07-29T01:20:50.355Z,4.10
2022-07-29T01:23:35.615Z,4.00
2022-07-29T01:26:14.387Z,3.97
2022-07-29T01:29:01.059Z,4.13
2022-07-29T01:31:55.189Z,4.00
2022-07-29T01:34:51.641Z,4.03
2022-07-29T01:37:27.389Z,4.05
2022-07-29T01:39:57.586Z,4.22
2022-07-29T01:42:30.370Z,4.00
2022-07-29T01:45:11.944Z,4.32
2022-07-29T01:47:44.741Z,4.00
2022-07-29T01:50:15.876Z,3.90
2022-07-29T01:52:57.291Z,4.03
2022-07-29T01:55:28.190Z,4.35
2022-07-29T01:57:57.580Z,4.20
2022-07-29T02:00:26.220Z,4.60
2022-07-29T02:02:55.492Z,4.38
2022-07-29T02:05:24.348Z,4.60
2022-07-29T02:07:53.566Z,4.30
2022-07-29T02:10:26.028Z,4.40
2022-07-29T02:12:56.335Z,4.45
2022-07-29T02:15:26.869Z,4.22
2022-07-29T02:18:08.399Z,4.20
2022-07-29T02:20:35.711Z,4.40
2022-07-29T02:23:03.792Z,4.13
2022-07-29T02:25:37.232Z,4.50
2022-07-29T02:28:09.166Z,4.47
2022-07-29T02:30:43.000Z,4.85
2022-07-29T02:33:13.674Z,4.55
2022-07-29T02:35:42.182Z,3.97
2022-07-29T02:38:31.960Z,4.35
2022-07-29T02:41:01.463Z,4.50
2022-07-29T02:43:30.129Z,4.63
2022-07-29T02:45:59.427Z,4.37
2022-07-29T02:48:35.821Z,4.43
2022-07-29T02:51:43.754Z,4.30
2022-07-29T02:54:08.983Z,4.35
2022-07-29T02:56:37.420Z,4.20
2022-07-29T02:59:10.779Z,4.57
2022-07-29T03:01:43.678Z,4.50
2022-07-29T03:04:12.911Z,4.28
2022-07-29T03:06:41.741Z,4.78
2022-07-29T03:09:13.315Z,4.35
2022-07-29T03:11:49.883Z,4.72
2022-07-29T03:14:20.828Z,4.20
2022-07-29T03:16:49.427Z,4.25
2022-07-29T03:19:17.337Z,4.70
2022-07-29T03:21:51.453Z,4.32
2022-07-29T03:24:36.014Z,4.13
2022-07-29T03:27:04.662Z,4.43
2022-07-29T03:29:33.126Z,4.65
2022-07-29T03:32:02.717Z,4.93
2022-07-29T03:34:30.503Z,4.35
2022-07-29T03:36:57.415Z,4.90
2022-07-29T03:39:28.816Z,4.15
2022-07-29T03:41:59.654Z,4.70
2022-07-29T03:44:28.541Z,4.50
2022-07-29T03:46:59.654Z,4.95
2022-07-29T03:49:27.899Z,4.43
2022-07-29T03:51:55.681Z,4.20
2022-07-29T03:54:22.696Z,4.60
2022-07-29T03:56:51.744Z,4.80
2022-07-29T03:59:20.641Z,4.60
2022-07-29T04:01:49.138Z,4.70
2022-07-29T04:04:16.513Z,4.53
2022-07-29T04:06:46.075Z,4.55
2022-07-29T04:09:15.353Z,4.65
2022-07-29T04:12:02.383Z,4.75
2022-07-29T04:14:30.140Z,4.63
2022-07-29T04:16:57.011Z,4.60
2022-07-29T04:19:23.854Z,4.40
2022-07-29T04:21:57.436Z,4.75
2022-07-29T04:24:24.254Z,4.75
2022-07-29T04:26:51.179Z,4.80
2022-07-29T04:29:18.092Z,4.90
2022-07-29T04:31:45.418Z,5.05
2022-07-29T04:34:13.471Z,4.88
2022-07-29T04:36:40.787Z,4.93
2022-07-29T04:39:07.617Z,4.22
2022-07-29T04:41:34.683Z,4.60
2022-07-29T04:44:06.170Z,4.85
2022-07-29T04:46:35.044Z,4.75
2022-07-29T04:49:02.212Z,4.25
2022-07-29T04:51:29.129Z,4.90
2022-07-29T04:53:56.008Z,4.90
2022-07-29T04:56:23.020Z,4.47
2022-07-29T04:58:49.914Z,4.82
2022-07-29T05:01:16.847Z,4.80
2022-07-29T05:03:43.736Z,4.90
2022-07-29T05:06:10.868Z,5.20
2022-07-29T05:08:38.358Z,5.00
2022-07-29T05:11:12.182Z,5.22
2022-07-29T05:13:45.422Z,4.90
2022-07-29T05:16:14.802Z,5.70
2022-07-29T05:18:42.250Z,5.22
2022-07-29T05:21:09.250Z,5.25
2022-07-29T05:23:36.122Z,5.22
2022-07-29T05:28:58.133Z,5.68
2022-07-29T05:31:25.086Z,5.18
2022-07-29T05:33:51.998Z,5.40
2022-07-29T05:36:19.340Z,5.53
2022-07-29T05:38:46.281Z,5.55
2022-07-29T05:41:13.158Z,5.70
2022-07-29T05:43:40.033Z,5.53
2022-07-29T05:46:07.016Z,5.90
2022-07-29T05:48:33.913Z,6.65
2022-07-29T05:51:00.826Z,6.45
2022-07-29T05:53:27.712Z,6.97
2022-07-29T05:55:54.629Z,6.38
2022-07-29T05:58:21.729Z,6.90
2022-07-29T06:00:48.657Z,6.68
2022-07-29T06:03:15.510Z,7.40
2022-07-29T06:05:42.391Z,6.57
2022-07-29T06:08:10.290Z,6.80
2022-07-29T06:10:37.215Z,7.03
2022-07-29T06:13:04.523Z,7.10
2022-07-29T06:15:31.751Z,6.80
2022-07-29T06:17:59.119Z,7.60
2022-07-29T06:20:30.908Z,7.15
2022-07-29T06:22:59.301Z,6.97
2022-07-29T06:25:26.399Z,6.80
2022-07-29T06:27:53.509Z,7.45
2022-07-29T06:30:20.497Z,7.47
2022-07-29T06:32:47.921Z,6.70
2022-07-29T06:38:02.455Z,7.00
2022-07-29T06:40:47.708Z,6.88
2022-07-29T06:43:14.708Z,7.40
2022-07-29T06:45:42.644Z,7.07
2022-07-29T06:48:11.058Z,6.88
2022-07-29T06:50:38.144Z,7.95
2022-07-29T06:53:05.252Z,7.40
2022-07-29T06:55:32.204Z,7.90
2022-07-29T06:57:59.176Z,7.53
2022-07-29T07:00:26.697Z,7.82
2022-07-29T07:02:53.877Z,8.13
2022-07-29T07:05:20.912Z,7.53
2022-07-29T07:07:47.743Z,7.60
2022-07-29T07:10:14.639Z,7.00
2022-07-29T07:12:41.482Z,6.90
2022-07-29T07:15:08.639Z,7.18
2022-07-29T07:17:35.600Z,6.65
2022-07-29T07:20:02.472Z,6.60
2022-07-29T07:22:29.327Z,7.20
2022-07-29T07:24:56.142Z,6.13
2022-07-29T07:27:23.773Z,6.60
2022-07-29T07:29:50.741Z,5.95
2022-07-29T07:32:17.783Z,6.53
2022-07-29T07:34:44.888Z,6.43
2022-07-29T07:37:12.928Z,6.07
2022-07-29T07:39:39.758Z,6.28
2022-07-29T07:42:06.765Z,6.20
2022-07-29T07:44:46.290Z,6.38
2022-07-29T07:47:24.660Z,6.47
2022-07-29T07:49:54.976Z,6.10
2022-07-29T07:52:23.114Z,6.00
2022-07-29T07:54:50.077Z,5.40
2022-07-29T07:57:17.335Z,5.47
2022-07-29T07:59:44.191Z,5.18
2022-07-29T08:02:11.308Z,5.60
2022-07-29T08:04:39.066Z,5.53
2022-07-29T08:07:05.932Z,5.38
2022-07-29T08:09:32.901Z,5.43
2022-07-29T08:12:06.525Z,5.70
2022-07-29T08:14:34.485Z,5.70
2022-07-29T08:17:01.758Z,5.63
2022-07-29T08:19:28.819Z,5.43
2022-07-29T08:21:57.927Z,5.50
2022-07-29T08:24:43.234Z,5.00
2022-07-29T08:27:40.721Z,5.55
2022-07-29T08:30:01.600Z,5.40
2022-07-29T08:32:51.883Z,5.28
2022-07-29T08:35:16.435Z,4.50
2022-07-29T08:37:43.253Z,5.22
2022-07-29T08:40:10.584Z,4.82
2022-07-29T08:42:37.719Z,5.00
2022-07-29T08:45:06.305Z,5.03
2022-07-29T08:47:34.569Z,5.00
2022-07-29T08:50:01.410Z,5.35
2022-07-29T08:52:33.675Z,5.15
2022-07-29T08:55:01.064Z,5.18
2022-07-29T08:57:37.138Z,5.28
2022-07-29T09:00:11.781Z,5.30
2022-07-29T09:02:43.325Z,5.43
2022-07-29T09:05:14.027Z,4.75
2022-07-29T09:07:44.309Z,5.05
2022-07-29T09:10:11.750Z,5.28
2022-07-29T09:12:39.089Z,5.13
2022-07-29T09:15:06.699Z,5.25
2022-07-29T09:17:50.465Z,5.07
2022-07-29T09:20:19.813Z,5.60
2022-07-29T09:22:50.725Z,9.73
2022-07-29T09:25:38.995Z,6.65
2022-07-29T09:28:14.563Z,5.20
2022-07-29T09:30:54.606Z,5.50
2022-07-29T09:33:31.975Z,4.90
2022-07-29T09:36:09.633Z,5.43
2022-07-29T09:38:38.148Z,5.35
2022-07-29T09:41:06.929Z,4.90
2022-07-29T09:43:34.550Z,5.28
2022-07-29T09:46:16.177Z,5.50
2022-07-29T09:48:43.215Z,6.10
2022-07-29T09:51:24.094Z,5.57
2022-07-29T09:53:54.228Z,5.10
2022-07-29T09:56:27.665Z,5.38
2022-07-29T09:59:27.499Z,5.20
2022-07-29T10:02:00.555Z,5.03
2022-07-29T10:05:24.500Z,5.32
2022-07-29T10:07:57.903Z,5.20
2022-07-29T10:10:34.922Z,4.93
2022-07-29T10:13:13.521Z,4.70
2022-07-29T10:15:46.347Z,4.95
2022-07-29T10:18:18.714Z,5.22
2022-07-29T10:20:46.533Z,5.63
2022-07-29T10:23:15.510Z,4.63
2022-07-29T10:25:46.387Z,5.03
2022-07-29T10:28:16.470Z,5.00
2022-07-29T10:30:45.985Z,5.10
2022-07-29T10:33:38.430Z,4.72
2022-07-29T10:36:45.687Z,4.80
2022-07-29T10:39:53.749Z,4.43
2022-07-29T10:42:33.967Z,5.03
2022-07-29T10:45:05.051Z,4.78
2022-07-29T10:50:17.202Z,5.00
2022-07-29T10:52:50.527Z,5.45
2022-07-29T10:58:31.233Z,4.53
2022-07-29T11:01:37.585Z,4.70
2022-07-29T11:04:06.480Z,5.82
2022-07-29T11:06:59.908Z,4.55
2022-07-29T11:09:37.541Z,4.60
2022-07-29T11:12:37.200Z,4.72
2022-07-29T11:15:13.781Z,4.78
2022-07-29T11:17:59.451Z,5.45
2022-07-29T11:20:38.089Z,5.00
2022-07-29T11:23:27.829Z,4.68
2022-07-29T11:26:23.330Z,4.60
2022-07-29T11:29:07.320Z,4.90
2022-07-29T11:31:39.167Z,4.35
2022-07-29T11:34:21.618Z,4.25
2022-07-29T11:37:07.771Z,4.70
2022-07-29T11:39:37.630Z,4.57
2022-07-29T11:42:28.266Z,4.20
2022-07-29T11:45:43.678Z,4.38
2022-07-29T11:48:28.045Z,4.30
2022-07-29T11:50:49.439Z,4.00
2022-07-29T11:53:17.301Z,4.50
2022-07-29T11:58:32.005Z,3.70
2022-07-29T12:01:04.932Z,3.65
2022-07-29T12:03:35.035Z,3.90
2022-07-29T12:06:23.307Z,3.85
2022-07-29T12:08:50.339Z,3.67
2022-07-29T12:11:39.120Z,3.97
2022-07-29T12:14:06.828Z,3.50
2022-07-29T12:16:41.086Z,3.55
2022-07-29T12:19:08.692Z,4.38
2022-07-29T12:21:56.214Z,3.97
2022-07-29T12:24:26.930Z,4.28
2022-07-29T12:27:02.780Z,3.78
2022-07-29T12:29:33.771Z,3.78
2022-07-29T12:32:03.087Z,3.70
2022-07-29T12:34:30.842Z,3.97
2022-07-29T12:36:57.842Z,3.95
2022-07-29T12:39:27.523Z,4.00
2022-07-29T12:42:03.905Z,3.90
2022-07-29T12:44:52.351Z,4.05
2022-07-29T12:47:20.750Z,4.57
2022-07-29T12:49:48.460Z,4.30
2022-07-29T12:52:33.478Z,3.95
2022-07-29T12:55:01.985Z,4.28
2022-07-29T12:57:29.295Z,3.88
2022-07-29T13:00:04.962Z,3.88
2022-07-29T13:02:32.483Z,3.83
2022-07-29T13:05:01.330Z,4.03
2022-07-29T13:07:54.148Z,3.90
2022-07-29T13:10:19.712Z,4.10
2022-07-29T13:13:11.993Z,3.95
2022-07-29T13:15:41.136Z,3.87
2022-07-29T13:18:37.116Z,4.18
2022-07-29T13:21:18.740Z,3.80
2022-07-29T13:23:46.081Z,4.00
2022-07-29T13:26:13.187Z,4.10
2022-07-29T13:28:40.145Z,4.00
2022-07-29T13:31:11.383Z,3.90
2022-07-29T13:33:38.272Z,3.67
2022-07-29T13:36:05.217Z,4.00
2022-07-29T13:38:32.062Z,3.92
2022-07-29T13:40:59.679Z,3.95
2022-07-29T13:43:26.568Z,4.18
2022-07-29T13:45:53.445Z,3.90
2022-07-29T13:48:20.433Z,4.40
2022-07-29T13:50:47.800Z,3.95
2022-07-29T13:53:17.602Z,3.95
2022-07-29T13:55:45.381Z,4.00
2022-07-29T13:58:12.340Z,4.20
2022-07-29T14:00:39.479Z,4.63
2022-07-29T14:03:07.571Z,4.03
2022-07-29T14:05:34.580Z,4.00
2022-07-29T14:08:01.477Z,4.20
2022-07-29T14:10:28.343Z,4.28
2022-07-29T14:12:55.249Z,4.40
2022-07-29T14:15:22.336Z,4.20
2022-07-29T14:17:49.243Z,4.25
2022-07-29T14:20:17.200Z,4.18
2022-07-29T14:22:45.031Z,4.30
2022-07-29T14:25:14.632Z,4.47
2022-07-29T14:27:43.224Z,4.15
2022-07-29T14:30:10.770Z,4.57
2022-07-29T14:32:37.684Z,4.47
2022-07-29T14:35:05.811Z,3.92
2022-07-29T14:37:39.778Z,4.47
2022-07-29T14:40:09.091Z,4.43
2022-07-29T14:42:37.223Z,3.92
2022-07-29T14:45:05.802Z,4.10
2022-07-29T14:47:32.734Z,4.25
2022-07-29T14:49:59.563Z,3.90
2022-07-29T14:52:26.470Z,4.13
2022-07-29T14:54:53.364Z,3.55
2022-07-29T14:57:20.921Z,3.88
2022-07-29T14:59:47.773Z,4.30
2022-07-29T15:02:14.653Z,4.18
2022-07-29T15:04:41.575Z,4.25
2022-07-29T15:07:08.479Z,3.85
2022-07-29T15:09:36.276Z,4.00
2022-07-29T15:12:08.020Z,4.10
2022-07-29T15:14:34.932Z,4.05
2022-07-29T15:17:01.877Z,4.13
2022-07-29T15:19:31.717Z,4.47
2022-07-29T15:21:59.760Z,4.10
2022-07-29T15:24:27.146Z,4.22
2022-07-29T15:26:54.918Z,4.43
2022-07-29T15:29:22.499Z,4.22
2022-07-29T15:31:49.452Z,3.97
2022-07-29T15:34:16.396Z,4.30
2022-07-29T15:36:52.378Z,4.30
2022-07-29T15:39:20.599Z,4.40
2022-07-29T15:41:47.712Z,4.00
2022-07-29T15:44:14.651Z,4.30
2022-07-29T15:47:01.010Z,4.20
2022-07-29T15:49:47.717Z,4.70
2022-07-29T15:52:20.324Z,4.40
2022-07-29T15:54:57.005Z,4.38
2022-07-29T15:57:24.880Z,4.50
2022-07-29T15:59:52.162Z,4.50
2022-07-29T16:02:19.164Z,4.20
2022-07-29T16:04:46.057Z,4.63
2022-07-29T16:07:12.946Z,4.32
2022-07-29T16:09:41.709Z,4.38
2022-07-29T16:12:14.964Z,4.68
2022-07-29T16:14:43.813Z,4.30
2022-07-29T16:17:14.546Z,4.55
2022-07-29T16:19:43.119Z,4.20
2022-07-29T16:22:10.122Z,4.53
2022-07-29T16:24:37.217Z,4.05
2022-07-29T16:27:04.226Z,4.55
2022-07-29T16:29:31.194Z,4.43
2022-07-29T16:31:58.158Z,4.55
2022-07-29T16:34:25.149Z,5.00
2022-07-29T16:36:52.027Z,4.32
2022-07-29T16:39:18.828Z,4.57
2022-07-29T16:41:45.681Z,4.60
2022-07-29T16:44:12.618Z,5.00
2022-07-29T16:46:39.635Z,4.45
2022-07-29T16:49:08.478Z,4.35
2022-07-29T16:51:35.540Z,4.50
2022-07-29T16:54:02.363Z,4.97
2022-07-29T16:56:29.292Z,4.63
2022-07-29T16:58:58.205Z,4.60
2022-07-29T17:01:25.173Z,4.90
2022-07-29T17:04:07.407Z,4.60
2022-07-29T17:06:40.472Z,4.68
2022-07-29T17:09:09.502Z,4.82
2022-07-29T17:14:28.331Z,4.68
2022-07-29T17:17:01.083Z,4.90
2022-07-29T17:19:39.759Z,4.63
2022-07-29T17:22:15.682Z,5.80
2022-07-29T17:24:45.612Z,5.38
2022-07-29T17:27:12.976Z,4.82
2022-07-29T17:29:40.055Z,6.07
2022-07-29T17:32:09.241Z,5.72
2022-07-29T17:34:41.440Z,5.90
2022-07-29T17:37:10.780Z,6.55
2022-07-29T17:39:41.990Z,5.85
2022-07-29T17:42:10.911Z,5.90
2022-07-29T17:44:39.181Z,6.10
2022-07-29T17:47:15.985Z,5.83
2022-07-29T17:49:44.300Z,5.93
2022-07-29T17:52:11.621Z,5.40
2022-07-29T17:54:43.955Z,5.50
2022-07-29T17:57:10.929Z,5.57
2022-07-29T17:59:37.862Z,6.00
2022-07-29T18:02:04.807Z,5.93
2022-07-29T18:04:31.719Z,5.53
2022-07-29T18:06:58.928Z,5.25
2022-07-29T18:09:26.096Z,5.72
2022-07-29T18:11:52.993Z,5.25
2022-07-29T18:14:19.868Z,5.20
2022-07-29T18:16:46.782Z,5.40
2022-07-29T18:19:14.172Z,5.60
2022-07-29T18:21:45.931Z,5.20
2022-07-29T18:24:18.995Z,5.20
2022-07-29T18:26:45.860Z,5.63
2022-07-29T18:29:12.764Z,5.47
2022-07-29T18:31:41.278Z,5.35
2022-07-29T18:34:08.855Z,5.43
2022-07-29T18:36:35.758Z,5.30
2022-07-29T18:39:05.402Z,5.30
2022-07-29T18:41:34.271Z,5.60
2022-07-29T18:44:01.181Z,5.70
2022-07-29T18:46:28.111Z,5.50
2022-07-29T18:48:57.401Z,5.45
2022-07-29T18:51:24.280Z,5.35
2022-07-29T18:53:51.233Z,5.40
2022-07-29T18:56:18.650Z,5.63
2022-07-29T18:58:45.507Z,5.68
2022-07-29T19:01:16.418Z,5.38
2022-07-29T19:03:43.697Z,5.40
2022-07-29T19:06:10.597Z,5.50
2022-07-29T19:08:37.454Z,5.07
2022-07-29T19:11:04.278Z,5.50
2022-07-29T19:13:31.364Z,5.50
2022-07-29T19:15:58.377Z,5.93
2022-07-29T19:18:25.301Z,5.60
2022-07-29T19:20:52.124Z,5.60
2022-07-29T19:23:19.858Z,5.50
2022-07-29T19:25:53.613Z,5.03
2022-07-29T19:28:21.942Z,5.20
2022-07-29T19:30:49.442Z,4.90
2022-07-29T19:33:17.764Z,4.90
2022-07-29T19:35:54.630Z,5.07
2022-07-29T19:38:22.205Z,4.78
2022-07-29T19:40:49.098Z,5.60
2022-07-29T19:43:51.688Z,7.95
2022-07-29T19:46:02.992Z,8.40
2022-07-29T19:48:29.978Z,7.55
2022-07-29T19:50:57.122Z,9.02
2022-07-29T19:53:23.987Z,8.68
2022-07-29T19:55:52.072Z,9.00
2022-07-29T19:58:18.931Z,8.23
2022-07-29T20:00:49.440Z,7.00
2022-07-29T20:03:16.826Z,7.78
2022-07-29T20:05:43.863Z,12.70
2022-07-29T20:08:15.198Z,9.05
2022-07-29T20:10:42.068Z,8.07
2022-07-29T20:13:09.108Z,8.10
2022-07-29T20:15:36.291Z,5.85
2022-07-29T20:18:03.394Z,5.10
2022-07-29T20:20:30.303Z,5.35
2022-07-29T20:22:57.437Z,5.15
2022-07-29T20:25:24.537Z,5.70
2022-07-29T20:27:52.627Z,5.22
2022-07-29T20:30:20.565Z,6.13
2022-07-29T20:32:48.336Z,5.82
2022-07-29T20:35:15.513Z,6.90
2022-07-29T20:37:52.449Z,7.18
2022-07-29T20:40:24.836Z,7.13
2022-07-29T20:42:52.127Z,8.77
2022-07-29T20:45:20.219Z,7.28
2022-07-29T20:47:47.253Z,7.10
2022-07-29T20:50:14.394Z,7.35
2022-07-29T20:52:43.417Z,6.60
2022-07-29T20:55:10.830Z,6.93
2022-07-29T20:57:38.653Z,6.57
2022-07-29T21:00:08.497Z,6.60
2022-07-29T21:02:35.933Z,6.45
2022-07-29T21:05:02.840Z,6.50
2022-07-29T21:07:29.756Z,6.53
2022-07-29T21:09:56.682Z,6.22
2022-07-29T21:12:23.762Z,10.35
2022-07-29T21:14:51.893Z,8.57
2022-07-29T21:17:21.210Z,8.18
2022-07-29T21:19:52.667Z,7.28
2022-07-29T21:22:22.077Z,8.20
2022-07-29T21:27:35.204Z,6.70
2022-07-29T21:30:06.923Z,8.13
2022-07-29T21:32:34.060Z,8.23
2022-07-29T21:35:00.978Z,8.30
2022-07-29T21:37:28.275Z,6.90
2022-07-29T21:39:55.159Z,7.15
2022-07-29T21:42:22.057Z,7.40
2022-07-29T21:44:49.031Z,7.15
2022-07-29T21:47:16.078Z,7.20
2022-07-29T21:49:42.947Z,7.47
2022-07-29T21:52:10.876Z,6.93
2022-07-29T21:54:38.411Z,7.25
2022-07-29T21:57:05.669Z,7.25
2022-07-29T21:59:32.851Z,6.95
2022-07-29T22:02:01.254Z,7.55
2022-07-29T22:04:29.393Z,7.20
2022-07-29T22:06:57.890Z,6.45
2022-07-29T22:09:25.554Z,6.53
2022-07-29T22:11:52.509Z,6.55
2022-07-29T22:14:19.387Z,7.85
2022-07-29T22:16:47.302Z,6.57
2022-07-29T22:19:15.454Z,6.50
2022-07-29T22:21:42.706Z,6.90
2022-07-29T22:24:10.785Z,6.60
2022-07-29T22:26:38.525Z,6.55
2022-07-29T22:29:05.914Z,10.20
2022-07-29T22:31:32.841Z,7.70
2022-07-29T22:33:59.707Z,8.05
2022-07-29T22:36:27.085Z,7.05
2022-07-29T22:38:53.946Z,6.82
2022-07-29T22:41:20.967Z,6.85
2022-07-29T22:43:47.835Z,7.43
2022-07-29T22:46:14.792Z,7.32
2022-07-29T22:48:41.745Z,7.50
2022-07-29T22:51:09.149Z,7.63
2022-07-29T22:53:36.980Z,7.88
2022-07-29T22:56:04.203Z,7.10
2022-07-29T22:58:31.042Z,7.10
2022-07-29T23:00:58.197Z,7.45
2022-07-29T23:03:26.627Z,7.13
2022-07-29T23:05:53.525Z,7.07
2022-07-29T23:08:20.743Z,7.10
2022-07-29T23:10:47.974Z,7.47
2022-07-29T23:13:14.921Z,7.38
2022-07-29T23:15:42.157Z,8.00
2022-07-29T23:18:09.332Z,7.95
2022-07-29T23:20:36.593Z,7.97
2022-07-29T23:23:03.715Z,8.10
2022-07-29T23:25:30.624Z,7.85
2022-07-29T23:27:57.763Z,7.82
2022-07-29T23:30:24.799Z,7.35
2022-07-29T23:32:51.756Z,7.30
2022-07-29T23:35:18.739Z,7.30
2022-07-29T23:37:45.642Z,7.18
2022-07-29T23:40:14.782Z,7.65
2022-07-29T23:42:42.879Z,7.50
2022-07-29T23:45:11.485Z,7.70
2022-07-29T23:47:38.382Z,7.18
2022-07-29T23:50:07.306Z,7.57
2022-07-29T23:52:34.238Z,7.85
2022-07-29T23:55:38.108Z,7.28
2022-07-29T23:57:49.531Z,8.18
